createdAt,value
2018-08-19T00:01:34.915Z,17.30
2018-08-19T00:07:04.411Z,17.30
2018-08-19T00:16:28.609Z,17.30
2018-08-19T00:22:34.777Z,17.30
2018-08-19T02:00:15.670Z,17.30
2018-08-19T02:02:56.432Z,16.50
2018-08-19T02:05:24.409Z,16.40
2018-08-19T02:07:52.881Z,16.40
2018-08-19T02:10:20.486Z,16.40
2018-08-19T02:12:49.604Z,16.50
2018-08-19T02:15:17.049Z,16.50
2018-08-19T02:17:50.025Z,16.50
2018-08-19T02:20:17.490Z,16.40
2018-08-19T02:22:56.029Z,16.40
2018-08-19T02:25:23.511Z,16.30
2018-08-19T02:27:50.957Z,16.30
2018-08-19T02:30:18.411Z,16.20
2018-08-19T02:32:45.862Z,16.30
2018-08-19T02:35:13.297Z,16.20
2018-08-19T02:37:40.785Z,16.30
2018-08-19T02:40:11.101Z,16.30
2018-08-19T02:42:38.570Z,16.30
2018-08-19T02:45:07.075Z,16.30
2018-08-19T02:47:35.021Z,16.30
2018-08-19T02:50:02.553Z,16.30
2018-08-19T02:52:31.137Z,16.20
2018-08-19T02:55:00.795Z,16.20
2018-08-19T02:57:30.282Z,16.20
2018-08-19T02:59:58.681Z,16.10
2018-08-19T03:02:27.733Z,16.10
2018-08-19T03:04:56.050Z,16.00
2018-08-19T03:07:24.910Z,16.00
2018-08-19T03:09:59.818Z,16.00
2018-08-19T03:12:27.285Z,16.00
2018-08-19T03:14:55.408Z,15.90
2018-08-19T03:17:23.357Z,15.80
2018-08-19T03:19:51.325Z,15.70
2018-08-19T03:22:18.828Z,15.60
2018-08-19T03:24:46.310Z,15.60
2018-08-19T03:27:13.985Z,15.60
2018-08-19T03:29:47.070Z,15.60
2018-08-19T03:32:14.534Z,15.60
2018-08-19T03:34:41.987Z,15.70
2018-08-19T03:37:09.437Z,15.70
2018-08-19T03:39:36.889Z,15.70
2018-08-19T03:42:04.372Z,15.80
2018-08-19T03:44:31.809Z,15.80
2018-08-19T03:47:00.014Z,15.80
2018-08-19T03:49:27.458Z,15.80
2018-08-19T03:51:54.941Z,15.80
2018-08-19T03:54:22.443Z,15.80
2018-08-19T03:56:49.897Z,15.80
2018-08-19T03:59:17.341Z,15.80
2018-08-19T04:01:45.799Z,15.80
2018-08-19T04:04:14.881Z,15.80
2018-08-19T04:06:42.509Z,15.80
2018-08-19T04:09:09.961Z,15.80
2018-08-19T04:11:37.429Z,15.80
2018-08-19T04:14:10.249Z,15.80
2018-08-19T04:16:37.686Z,15.90
2018-08-19T04:19:07.923Z,15.80
2018-08-19T04:21:35.364Z,15.80
2018-08-19T04:24:02.813Z,15.80
2018-08-19T04:26:30.723Z,15.80
2018-08-19T04:28:58.157Z,15.80
2018-08-19T04:31:25.616Z,15.80
2018-08-19T04:33:53.493Z,15.60
2018-08-19T04:36:22.070Z,15.60
2018-08-19T04:38:49.561Z,15.60
2018-08-19T04:41:17.138Z,15.40
2018-08-19T04:43:45.261Z,15.40
2018-08-19T04:46:12.698Z,15.40
2018-08-19T04:48:40.155Z,15.30
2018-08-19T04:51:07.785Z,15.20
2018-08-19T04:53:35.443Z,15.30
2018-08-19T04:56:02.906Z,15.30
2018-08-19T04:58:30.502Z,15.30
2018-08-19T05:00:57.932Z,15.30
2018-08-19T05:03:25.379Z,15.20
2018-08-19T05:05:52.961Z,15.30
2018-08-19T05:08:20.535Z,15.30
2018-08-19T05:10:47.848Z,15.20
2018-08-19T05:13:15.279Z,15.30
2018-08-19T05:15:43.128Z,15.40
2018-08-19T05:18:10.638Z,15.40
2018-08-19T05:20:38.338Z,15.50
2018-08-19T05:23:06.137Z,15.60
2018-08-19T05:25:37.520Z,15.60
2018-08-19T05:28:05.934Z,15.70
2018-08-19T05:30:34.309Z,15.70
2018-08-19T05:33:03.845Z,15.80
2018-08-19T05:35:32.311Z,15.90
2018-08-19T05:38:00.880Z,15.90
2018-08-19T05:40:28.319Z,15.90
2018-08-19T05:42:55.871Z,16.00
2018-08-19T05:45:23.337Z,16.00
2018-08-19T05:47:56.625Z,16.10
2018-08-19T05:50:24.142Z,16.20
2018-08-19T05:52:51.585Z,16.20
2018-08-19T05:55:19.103Z,16.20
2018-08-19T05:57:46.542Z,16.30
2018-08-19T06:00:19.460Z,16.40
2018-08-19T06:02:46.980Z,16.60
2018-08-19T06:05:14.567Z,16.60
2018-08-19T06:07:42.156Z,16.70
2018-08-19T06:10:09.474Z,16.80
2018-08-19T06:12:37.009Z,16.90
2018-08-19T06:15:04.786Z,17.00
2018-08-19T06:17:32.327Z,17.10
2018-08-19T06:19:59.774Z,17.30
2018-08-19T06:22:31.544Z,17.50
2018-08-19T06:24:59.085Z,17.60
2018-08-19T06:27:30.830Z,17.60
2018-08-19T06:29:58.440Z,17.80
2018-08-19T06:32:30.463Z,17.90
2018-08-19T06:34:57.995Z,17.90
2018-08-19T06:37:25.345Z,18.10
2018-08-19T06:39:52.937Z,18.30
2018-08-19T06:42:21.202Z,18.50
2018-08-19T06:44:48.733Z,18.70
2018-08-19T06:47:16.186Z,18.90
2018-08-19T06:49:49.234Z,19.20
2018-08-19T06:52:17.232Z,19.50
2018-08-19T06:54:44.514Z,19.80
2018-08-19T06:57:12.028Z,20.10
2018-08-19T06:59:39.597Z,20.40
2018-08-19T07:02:07.822Z,20.80
2018-08-19T07:04:43.845Z,21.10
2018-08-19T07:07:13.637Z,21.30
2018-08-19T07:09:41.353Z,21.60
2018-08-19T07:12:10.633Z,21.90
2018-08-19T07:14:38.097Z,22.20
2018-08-19T07:17:05.958Z,22.40
2018-08-19T07:19:34.286Z,22.80
2018-08-19T07:22:04.276Z,23.10
2018-08-19T07:24:34.187Z,23.50
2018-08-19T07:27:01.874Z,23.90
2018-08-19T07:29:30.168Z,24.20
2018-08-19T07:31:58.994Z,24.50
2018-08-19T07:34:26.547Z,24.60
2018-08-19T07:36:56.009Z,24.80
2018-08-19T07:39:24.874Z,24.90
2018-08-19T07:41:52.390Z,25.00
2018-08-19T07:44:19.833Z,25.00
2018-08-19T07:46:47.285Z,25.30
2018-08-19T07:49:14.725Z,25.30
2018-08-19T07:51:42.374Z,25.30
2018-08-19T07:54:09.758Z,25.50
2018-08-19T07:56:37.586Z,25.70
2018-08-19T07:59:06.304Z,25.40
2018-08-19T08:01:34.355Z,25.10
2018-08-19T08:04:01.802Z,25.20
2018-08-19T08:06:29.595Z,25.50
2018-08-19T08:08:58.554Z,25.80
2018-08-19T08:11:26.073Z,26.30
2018-08-19T08:13:53.584Z,26.80
2018-08-19T08:16:22.133Z,27.20
2018-08-19T08:18:49.573Z,27.50
2018-08-19T08:21:17.064Z,27.70
2018-08-19T08:23:44.628Z,27.70
2018-08-19T08:26:12.085Z,27.70
2018-08-19T08:28:39.525Z,27.90
2018-08-19T08:31:07.394Z,27.90
2018-08-19T08:33:35.949Z,28.10
2018-08-19T08:36:03.389Z,27.90
2018-08-19T08:38:30.955Z,28.10
2018-08-19T08:40:58.519Z,28.30
2018-08-19T08:43:25.956Z,28.60
2018-08-19T08:45:54.502Z,29.00
2018-08-19T08:48:21.941Z,29.40
2018-08-19T08:50:49.423Z,29.80
2018-08-19T08:53:16.936Z,29.90
2018-08-19T08:55:44.309Z,30.00
2018-08-19T08:58:15.857Z,30.20
2018-08-19T09:00:43.326Z,30.40
2018-08-19T09:03:10.892Z,30.40
2018-08-19T09:05:38.272Z,30.50
2018-08-19T09:08:06.931Z,30.80
2018-08-19T09:10:34.370Z,31.10
2018-08-19T09:13:04.355Z,31.00
2018-08-19T09:15:31.926Z,31.10
2018-08-19T09:17:59.497Z,31.10
2018-08-19T09:20:26.947Z,31.30
2018-08-19T09:22:54.454Z,31.40
2018-08-19T09:25:21.900Z,31.70
2018-08-19T09:27:53.324Z,31.90
2018-08-19T09:30:25.742Z,31.90
2018-08-19T09:32:57.589Z,31.70
2018-08-19T09:35:26.072Z,31.20
2018-08-19T09:37:58.179Z,31.20
2018-08-19T09:40:25.909Z,31.30
2018-08-19T09:42:53.754Z,31.60
2018-08-19T09:45:21.206Z,32.00
2018-08-19T09:47:48.853Z,32.00
2018-08-19T09:50:16.241Z,31.50
2018-08-19T09:52:43.686Z,31.50
2018-08-19T09:55:11.127Z,31.50
2018-08-19T09:57:44.025Z,31.40
2018-08-19T10:00:12.329Z,31.20
2018-08-19T10:02:45.242Z,31.20
2018-08-19T10:05:17.024Z,31.30
2018-08-19T10:07:44.516Z,31.30
2018-08-19T10:10:12.030Z,31.60
2018-08-19T10:12:39.564Z,31.90
2018-08-19T10:15:07.177Z,31.90
2018-08-19T10:17:34.775Z,32.10
2018-08-19T10:20:06.210Z,32.40
2018-08-19T10:22:40.746Z,32.50
2018-08-19T10:25:14.762Z,32.50
2018-08-19T10:27:42.938Z,32.70
2018-08-19T10:30:10.409Z,32.50
2018-08-19T10:32:37.846Z,32.50
2018-08-19T10:35:10.838Z,32.50
2018-08-19T10:37:38.302Z,32.90
2018-08-19T10:40:06.877Z,33.30
2018-08-19T10:42:34.446Z,33.40
2018-08-19T10:45:02.281Z,33.60
2018-08-19T10:47:30.030Z,33.70
2018-08-19T10:50:04.659Z,33.70
2018-08-19T10:52:32.616Z,33.50
2018-08-19T10:55:01.139Z,33.60
2018-08-19T10:57:28.642Z,33.40
2018-08-19T10:59:57.532Z,33.30
2018-08-19T11:02:25.041Z,33.40
2018-08-19T11:04:55.223Z,33.20
2018-08-19T11:07:22.790Z,33.40
2018-08-19T11:09:56.422Z,33.50
2018-08-19T11:12:23.931Z,33.70
2018-08-19T11:14:51.876Z,33.40
2018-08-19T11:17:19.318Z,33.50
2018-08-19T11:19:48.778Z,33.30
2018-08-19T11:22:16.249Z,33.10
2018-08-19T11:24:43.884Z,33.30
2018-08-19T11:27:11.348Z,32.90
2018-08-19T11:29:39.879Z,32.70
2018-08-19T11:32:07.342Z,32.80
2018-08-19T11:34:34.938Z,32.70
2018-08-19T11:37:02.409Z,32.90
2018-08-19T11:39:35.509Z,33.20
2018-08-19T11:42:02.958Z,33.00
2018-08-19T11:44:33.934Z,33.00
2018-08-19T11:47:01.367Z,32.60
2018-08-19T11:49:28.810Z,32.70
2018-08-19T11:51:58.556Z,32.60
2018-08-19T11:54:28.915Z,32.50
2018-08-19T11:57:02.292Z,32.60
2018-08-19T11:59:34.981Z,32.50
2018-08-19T12:02:02.650Z,32.30
2018-08-19T12:04:30.094Z,32.20
2018-08-19T12:06:57.744Z,32.00
2018-08-19T12:09:25.173Z,31.80
2018-08-19T12:11:52.678Z,31.70
2018-08-19T12:14:20.270Z,31.80
2018-08-19T12:16:53.105Z,31.70
2018-08-19T12:19:37.201Z,31.60
2018-08-19T12:22:05.424Z,31.50
2018-08-19T12:24:38.821Z,31.30
2018-08-19T12:27:07.692Z,31.20
2018-08-19T12:29:36.098Z,31.20
2018-08-19T12:32:09.488Z,31.00
2018-08-19T12:34:38.169Z,30.90
2018-08-19T12:37:06.471Z,30.90
2018-08-19T12:39:34.054Z,30.70
2018-08-19T12:42:02.070Z,30.60
2018-08-19T12:44:29.689Z,30.60
2018-08-19T12:47:05.398Z,30.60
2018-08-19T12:49:33.258Z,30.70
2018-08-19T12:52:00.980Z,30.80
2018-08-19T12:54:28.427Z,30.80
2018-08-19T12:56:56.003Z,30.80
2018-08-19T12:59:23.444Z,30.70
2018-08-19T13:01:51.267Z,30.60
2018-08-19T13:04:18.872Z,30.70
2018-08-19T13:06:56.560Z,30.70
2018-08-19T13:09:27.385Z,30.70
2018-08-19T13:11:54.888Z,30.70
2018-08-19T13:14:23.593Z,30.70
2018-08-19T13:16:52.225Z,30.70
2018-08-19T13:19:21.150Z,30.70
2018-08-19T13:21:48.609Z,30.70
2018-08-19T13:24:19.478Z,30.80
2018-08-19T13:26:47.134Z,30.90
2018-08-19T13:29:14.572Z,30.80
2018-08-19T13:31:42.209Z,30.70
2018-08-19T13:34:09.665Z,30.80
2018-08-19T13:36:37.136Z,30.60
2018-08-19T13:39:05.937Z,30.70
2018-08-19T13:41:33.377Z,30.80
2018-08-19T13:44:00.837Z,30.80
2018-08-19T13:46:28.290Z,30.80
2018-08-19T13:48:55.786Z,30.80
2018-08-19T13:51:23.446Z,30.80
2018-08-19T13:53:50.986Z,30.90
2018-08-19T13:56:18.441Z,30.90
2018-08-19T13:58:48.070Z,30.90
2018-08-19T14:01:15.508Z,30.90
2018-08-19T14:03:42.947Z,30.90
2018-08-19T14:06:10.418Z,30.90
2018-08-19T14:08:37.988Z,30.80
2018-08-19T14:11:06.547Z,30.80
2018-08-19T14:13:33.987Z,30.80
2018-08-19T14:16:01.466Z,30.80
2018-08-19T14:18:29.029Z,30.80
2018-08-19T14:20:56.501Z,30.80
2018-08-19T14:23:23.978Z,30.80
2018-08-19T14:25:51.618Z,30.80
2018-08-19T14:28:19.062Z,30.90
2018-08-19T14:30:46.581Z,30.90
2018-08-19T14:33:14.002Z,30.90
2018-08-19T14:35:41.474Z,30.90
2018-08-19T14:38:08.931Z,30.70
2018-08-19T14:40:36.558Z,30.80
2018-08-19T14:43:04.047Z,30.90
2018-08-19T14:45:31.850Z,30.90
2018-08-19T14:47:59.305Z,30.90
2018-08-19T14:50:26.794Z,30.60
2018-08-19T14:52:54.241Z,30.70
2018-08-19T14:55:21.712Z,30.70
2018-08-19T14:57:49.153Z,30.60
2018-08-19T15:00:17.365Z,30.60
2018-08-19T15:02:44.817Z,30.60
2018-08-19T15:05:14.009Z,30.60
2018-08-19T15:07:41.499Z,30.50
2018-08-19T15:10:09.034Z,30.50
2018-08-19T15:12:36.458Z,30.50
2018-08-19T15:15:04.010Z,30.40
2018-08-19T15:17:31.492Z,30.50
2018-08-19T15:19:59.006Z,30.40
2018-08-19T15:22:26.408Z,30.30
2018-08-19T15:24:53.901Z,30.40
2018-08-19T15:27:21.349Z,30.40
2018-08-19T15:29:50.241Z,30.40
2018-08-19T15:32:18.574Z,30.40
2018-08-19T15:34:45.843Z,30.20
2018-08-19T15:37:13.285Z,30.20
2018-08-19T15:39:40.714Z,30.30
2018-08-19T15:42:08.165Z,30.30
2018-08-19T15:44:35.744Z,30.30
2018-08-19T15:47:03.249Z,30.30
2018-08-19T15:49:30.761Z,30.30
2018-08-19T15:51:58.201Z,30.40
2018-08-19T15:54:25.637Z,30.40
2018-08-19T15:56:53.094Z,30.30
2018-08-19T15:59:20.538Z,30.40
2018-08-19T16:01:47.989Z,30.40
2018-08-19T16:04:19.685Z,30.40
2018-08-19T16:06:48.357Z,30.40
2018-08-19T16:09:17.225Z,30.40
2018-08-19T16:11:45.205Z,30.40
2018-08-19T16:14:18.731Z,30.30
2018-08-19T16:16:46.469Z,30.30
2018-08-19T16:19:13.913Z,30.40
2018-08-19T16:21:41.474Z,30.30
2018-08-19T16:24:09.354Z,30.20
2018-08-19T16:26:37.126Z,30.30
2018-08-19T16:29:04.656Z,30.20
2018-08-19T16:31:32.108Z,30.20
2018-08-19T16:33:59.742Z,30.10
2018-08-19T16:36:27.161Z,30.10
2018-08-19T16:38:55.318Z,30.10
2018-08-19T16:41:22.865Z,30.00
2018-08-19T16:43:50.426Z,29.90
2018-08-19T16:46:17.870Z,29.90
2018-08-19T16:48:45.310Z,29.90
2018-08-19T16:51:12.858Z,29.90
2018-08-19T16:53:40.296Z,29.80
2018-08-19T16:56:07.762Z,29.80
2018-08-19T16:58:35.197Z,29.80
2018-08-19T17:01:02.713Z,29.70
2018-08-19T17:03:31.942Z,29.70
2018-08-19T17:05:59.389Z,29.70
2018-08-19T17:08:26.850Z,29.60
2018-08-19T17:10:54.304Z,29.60
2018-08-19T17:13:21.746Z,29.60
2018-08-19T17:15:49.209Z,29.50
2018-08-19T17:18:16.749Z,29.50
2018-08-19T17:29:51.026Z,29.50
2018-08-19T17:32:19.606Z,29.30
2018-08-19T17:34:47.165Z,29.20
2018-08-19T17:37:16.713Z,29.20
2018-08-19T17:39:45.395Z,29.10
2018-08-19T17:42:12.806Z,28.90
2018-08-19T17:44:40.714Z,28.80
2018-08-19T17:47:08.247Z,28.80
2018-08-19T17:49:35.797Z,28.80
2018-08-19T17:52:03.446Z,28.60
2018-08-19T17:54:32.001Z,28.50
2018-08-19T17:57:00.781Z,28.50
2018-08-19T17:59:28.490Z,28.40
2018-08-19T18:01:55.998Z,28.30
2018-08-19T18:04:26.638Z,28.20
2018-08-19T18:06:54.197Z,28.10
2018-08-19T18:09:21.661Z,28.10
2018-08-19T18:11:54.626Z,28.10
2018-08-19T18:14:22.082Z,27.90
2018-08-19T18:16:49.539Z,27.80
2018-08-19T18:19:16.981Z,27.80
2018-08-19T18:21:44.474Z,27.70
2018-08-19T18:24:12.129Z,27.50
2018-08-19T18:26:39.653Z,27.40
2018-08-19T18:29:07.120Z,27.40
2018-08-19T18:31:34.605Z,27.40
2018-08-19T18:34:02.499Z,27.40
2018-08-19T18:36:31.548Z,27.30
2018-08-19T18:38:59.329Z,27.20
2018-08-19T18:41:33.279Z,27.10
2018-08-19T18:44:06.129Z,27.00
2018-08-19T18:46:34.125Z,27.00
2018-08-19T18:49:07.798Z,27.00
2018-08-19T18:51:35.299Z,26.90
2018-08-19T18:54:02.751Z,26.90
2018-08-19T18:56:30.206Z,26.80
2018-08-19T18:59:01.350Z,26.70
2018-08-19T19:01:29.958Z,26.70
2018-08-19T19:03:57.637Z,26.60
2018-08-19T19:06:25.268Z,26.50
2018-08-19T19:08:52.824Z,26.50
2018-08-19T19:11:21.348Z,26.50
2018-08-19T19:13:48.970Z,26.40
2018-08-19T19:16:18.302Z,26.40
2018-08-19T19:18:45.749Z,26.30
2018-08-19T19:21:13.215Z,26.30
2018-08-19T19:23:42.700Z,26.20
2018-08-19T19:26:10.514Z,26.10
2018-08-19T19:28:37.999Z,26.10
2018-08-19T19:31:11.183Z,26.00
2018-08-19T19:33:38.649Z,25.80
2018-08-19T19:36:11.822Z,25.80
2018-08-19T19:38:45.673Z,25.80
2018-08-19T19:41:13.239Z,25.70
2018-08-19T19:43:42.982Z,25.60
2018-08-19T19:46:10.458Z,25.60
2018-08-19T19:48:37.906Z,25.60
2018-08-19T19:51:05.534Z,25.50
2018-08-19T19:53:34.207Z,25.40
2018-08-19T19:56:07.059Z,25.30
2018-08-19T19:58:34.536Z,25.30
2018-08-19T20:01:02.578Z,25.20
2018-08-19T20:03:30.597Z,25.10
2018-08-19T20:05:58.049Z,25.00
2018-08-19T20:08:26.485Z,25.00
2018-08-19T20:10:53.925Z,24.90
2018-08-19T20:13:21.389Z,24.80
2018-08-19T20:15:48.998Z,24.80
2018-08-19T20:18:16.454Z,24.70
2018-08-19T20:20:43.912Z,24.70
2018-08-19T20:23:16.914Z,24.70
2018-08-19T20:25:44.849Z,24.60
2018-08-19T20:28:12.329Z,24.60
2018-08-19T20:30:40.225Z,24.60
2018-08-19T20:33:14.127Z,24.50
2018-08-19T20:35:41.561Z,24.50
2018-08-19T20:38:09.042Z,24.50
2018-08-19T20:40:36.701Z,24.40
2018-08-19T20:43:20.993Z,24.30
2018-08-19T20:45:48.437Z,24.30
2018-08-19T20:48:18.549Z,24.30
2018-08-19T20:50:46.621Z,24.20
2018-08-19T20:53:14.122Z,24.20
2018-08-19T20:55:41.665Z,24.10
2018-08-19T20:58:09.182Z,24.00
2018-08-19T21:00:37.060Z,24.00
2018-08-19T21:03:04.706Z,23.90
2018-08-19T21:05:32.204Z,23.90
2018-08-19T21:08:04.799Z,23.80
2018-08-19T21:10:32.269Z,23.80
2018-08-19T21:12:59.753Z,23.70
2018-08-19T21:15:33.973Z,23.70
2018-08-19T21:18:01.497Z,23.60
2018-08-19T21:20:28.970Z,23.60
2018-08-19T21:22:56.424Z,23.50
2018-08-19T21:25:24.325Z,23.50
2018-08-19T21:27:52.985Z,23.50
2018-08-19T21:30:21.585Z,23.50
2018-08-19T21:32:49.029Z,23.40
2018-08-19T21:35:16.605Z,23.40
2018-08-19T21:37:45.611Z,23.20
2018-08-19T21:40:13.078Z,23.20
2018-08-19T21:42:47.264Z,23.10
2018-08-19T21:45:14.730Z,23.10
2018-08-19T21:47:43.417Z,23.00
2018-08-19T21:50:10.968Z,22.90
2018-08-19T21:52:46.426Z,22.90
2018-08-19T21:55:13.956Z,22.90
2018-08-19T21:57:41.460Z,22.90
2018-08-19T22:00:08.980Z,22.90
2018-08-19T22:02:43.144Z,22.80
2018-08-19T22:05:10.593Z,22.80
2018-08-19T22:07:38.055Z,22.80
2018-08-19T22:10:05.625Z,22.80
2018-08-19T22:12:34.230Z,22.80
2018-08-19T22:15:01.714Z,22.70
2018-08-19T22:17:29.184Z,22.70
2018-08-19T22:19:56.716Z,22.60
2018-08-19T22:22:24.137Z,22.60
2018-08-19T22:24:51.598Z,22.50
2018-08-19T22:27:19.169Z,22.50
2018-08-19T22:29:46.613Z,22.50
2018-08-19T22:34:48.071Z,22.40
2018-08-19T22:37:15.662Z,22.40
2018-08-19T22:39:43.153Z,22.30
2018-08-19T22:42:10.618Z,22.30
2018-08-19T22:44:38.057Z,22.30
2018-08-19T22:47:05.527Z,22.30
2018-08-19T22:49:33.027Z,22.20
2018-08-19T22:52:06.062Z,22.20
2018-08-19T22:54:33.506Z,22.10
2018-08-19T22:57:01.001Z,22.10
2018-08-19T22:59:28.437Z,22.10
2018-08-19T23:01:55.888Z,22.10
2018-08-19T23:04:23.401Z,22.00
2018-08-19T23:06:50.874Z,21.90
2018-08-19T23:09:18.333Z,21.90
2018-08-19T23:11:47.387Z,21.90
2018-08-19T23:14:20.564Z,21.80
2018-08-19T23:16:48.048Z,21.90
2018-08-19T23:19:17.922Z,21.80
2018-08-19T23:21:45.372Z,21.80
2018-08-19T23:24:12.823Z,21.60
2018-08-19T23:26:40.281Z,21.60
2018-08-19T23:29:07.770Z,21.60
2018-08-19T23:31:35.219Z,21.60
2018-08-19T23:34:02.733Z,21.50
2018-08-19T23:36:30.181Z,21.50
2018-08-19T23:38:57.681Z,21.50
2018-08-19T23:41:26.289Z,21.50
2018-08-19T23:43:53.746Z,21.40
2018-08-19T23:46:21.201Z,21.40
2018-08-19T23:48:48.979Z,21.40
2018-08-19T23:51:24.888Z,21.30
2018-08-19T23:53:52.361Z,21.30
2018-08-19T23:56:19.825Z,21.30
2018-08-19T23:58:47.368Z,21.20
